createdAt,value
2022-08-28T00:00:21.356Z,21.07
2022-08-28T00:03:19.933Z,21.04
2022-08-28T00:06:02.605Z,21.02
2022-08-28T00:08:45.260Z,21.00
2022-08-28T00:11:27.461Z,20.99
2022-08-28T00:14:10.689Z,20.98
2022-08-28T00:16:54.632Z,20.97
2022-08-28T00:19:38.642Z,20.96
2022-08-28T00:22:20.984Z,20.95
2022-08-28T00:25:02.982Z,20.94
2022-08-28T00:27:54.946Z,20.93
2022-08-28T00:30:41.870Z,20.92
2022-08-28T00:33:30.073Z,20.90
2022-08-28T00:36:12.171Z,20.87
2022-08-28T00:38:54.180Z,20.84
2022-08-28T00:41:41.274Z,20.82
2022-08-28T00:44:26.061Z,20.80
2022-08-28T00:47:08.810Z,20.78
2022-08-28T00:49:54.846Z,20.75
2022-08-28T00:52:37.883Z,20.75
2022-08-28T00:55:25.308Z,20.72
2022-08-28T00:58:08.755Z,20.68
2022-08-28T01:00:50.787Z,20.66
2022-08-28T01:03:33.042Z,20.64
2022-08-28T01:06:20.262Z,20.61
2022-08-28T01:09:04.207Z,20.60
2022-08-28T01:11:48.518Z,20.59
2022-08-28T01:14:32.503Z,20.57
2022-08-28T01:17:17.292Z,20.54
2022-08-28T01:20:05.409Z,20.51
2022-08-28T01:22:54.235Z,20.48
2022-08-28T01:25:37.954Z,20.43
2022-08-28T01:28:19.903Z,20.40
2022-08-28T01:31:01.818Z,20.38
2022-08-28T01:33:46.532Z,20.36
2022-08-28T01:36:30.607Z,20.34
2022-08-28T01:39:17.726Z,20.32
2022-08-28T01:42:00.953Z,20.29
2022-08-28T01:44:43.416Z,20.26
2022-08-28T01:47:25.361Z,20.23
2022-08-28T01:50:09.214Z,20.21
2022-08-28T01:52:51.096Z,20.18
2022-08-28T01:55:35.976Z,20.15
2022-08-28T01:58:19.188Z,20.12
2022-08-28T02:01:02.109Z,20.10
2022-08-28T02:03:44.767Z,20.09
2022-08-28T02:06:26.719Z,20.06
2022-08-28T02:09:14.293Z,20.03
2022-08-28T02:11:57.609Z,20.00
2022-08-28T02:14:39.631Z,19.96
2022-08-28T02:17:21.573Z,19.91
2022-08-28T02:20:05.959Z,19.89
2022-08-28T02:22:48.334Z,19.86
2022-08-28T02:25:30.376Z,19.83
2022-08-28T02:28:12.542Z,19.81
2022-08-28T02:30:54.588Z,19.78
2022-08-28T02:33:39.092Z,19.76
2022-08-28T02:36:20.990Z,19.73
2022-08-28T02:39:03.087Z,19.71
2022-08-28T02:41:44.984Z,19.67
2022-08-28T02:44:26.930Z,19.64
2022-08-28T02:47:09.185Z,19.62
2022-08-28T02:49:51.182Z,19.59
2022-08-28T02:52:35.042Z,19.56
2022-08-28T02:55:18.913Z,19.54
2022-08-28T02:58:01.171Z,19.51
2022-08-28T03:00:44.398Z,19.48
2022-08-28T03:03:27.774Z,19.46
2022-08-28T03:06:12.673Z,19.44
2022-08-28T03:08:54.693Z,19.42
2022-08-28T03:11:37.361Z,19.39
2022-08-28T03:14:19.201Z,19.35
2022-08-28T03:17:01.782Z,19.32
2022-08-28T03:19:43.915Z,19.30
2022-08-28T03:22:44.858Z,19.28
2022-08-28T03:25:27.317Z,19.26
2022-08-28T03:28:09.423Z,19.23
2022-08-28T03:30:51.527Z,19.20
2022-08-28T03:33:34.182Z,19.19
2022-08-28T03:36:21.813Z,19.17
2022-08-28T03:39:06.475Z,19.17
2022-08-28T03:41:48.317Z,19.17
2022-08-28T03:44:30.263Z,19.16
2022-08-28T03:47:12.982Z,19.16
2022-08-28T03:49:56.821Z,19.15
2022-08-28T03:52:40.456Z,19.14
2022-08-28T03:55:23.170Z,19.11
2022-08-28T03:58:05.171Z,19.10
2022-08-28T04:00:47.934Z,19.09
2022-08-28T04:03:30.585Z,19.08
2022-08-28T04:06:13.314Z,19.06
2022-08-28T04:09:00.030Z,19.07
2022-08-28T04:11:42.738Z,19.06
2022-08-28T04:14:24.735Z,19.06
2022-08-28T04:17:07.093Z,19.07
2022-08-28T04:19:53.443Z,19.09
2022-08-28T04:22:37.330Z,19.08
2022-08-28T04:25:21.912Z,19.09
2022-08-28T04:28:04.664Z,19.10
2022-08-28T04:30:46.556Z,19.10
2022-08-28T04:33:29.714Z,19.10
2022-08-28T04:36:15.313Z,19.10
2022-08-28T04:38:59.102Z,19.09
2022-08-28T04:41:41.103Z,19.08
2022-08-28T04:44:23.099Z,19.08
2022-08-28T04:47:06.313Z,19.08
2022-08-28T04:49:48.224Z,19.08
2022-08-28T04:52:30.426Z,19.11
2022-08-28T04:55:12.423Z,19.15
2022-08-28T04:57:54.216Z,19.16
2022-08-28T05:00:41.011Z,19.17
2022-08-28T05:03:24.270Z,19.17
2022-08-28T05:06:07.186Z,19.20
2022-08-28T05:08:49.224Z,19.21
2022-08-28T05:11:34.484Z,19.23
2022-08-28T05:14:17.266Z,19.24
2022-08-28T05:16:59.581Z,19.25
2022-08-28T05:19:41.923Z,19.24
2022-08-28T05:22:23.975Z,19.24
2022-08-28T05:25:06.076Z,19.26
2022-08-28T05:27:47.980Z,19.28
2022-08-28T05:30:29.973Z,19.30
2022-08-28T05:33:14.994Z,19.32
2022-08-28T05:35:56.890Z,19.35
2022-08-28T05:38:39.999Z,19.37
2022-08-28T05:41:24.210Z,19.40
2022-08-28T05:44:09.773Z,19.44
2022-08-28T05:46:51.740Z,19.50
2022-08-28T05:49:33.525Z,19.56
2022-08-28T05:52:15.785Z,19.63
2022-08-28T05:54:58.131Z,19.67
2022-08-28T05:57:41.261Z,19.71
2022-08-28T06:00:23.216Z,19.77
2022-08-28T06:03:05.043Z,19.83
2022-08-28T06:05:46.882Z,19.88
2022-08-28T06:08:29.049Z,19.93
2022-08-28T06:11:11.003Z,19.96
2022-08-28T06:13:53.005Z,20.00
2022-08-28T06:16:38.159Z,20.05
2022-08-28T06:19:23.043Z,20.14
2022-08-28T06:22:07.120Z,20.21
2022-08-28T06:24:50.004Z,20.28
2022-08-28T06:27:34.307Z,20.33
2022-08-28T06:30:16.254Z,20.39
2022-08-28T06:32:58.150Z,20.45
2022-08-28T06:35:42.028Z,20.49
2022-08-28T06:38:26.489Z,20.53
2022-08-28T06:41:12.130Z,20.58
2022-08-28T06:43:54.845Z,20.63
2022-08-28T06:46:37.765Z,20.65
2022-08-28T06:49:21.303Z,20.68
2022-08-28T06:52:03.503Z,20.71
2022-08-28T06:54:55.396Z,20.73
2022-08-28T06:57:37.841Z,20.78
2022-08-28T07:00:19.942Z,20.81
2022-08-28T07:03:03.076Z,20.83
2022-08-28T07:05:45.372Z,20.86
2022-08-28T07:08:29.161Z,20.89
2022-08-28T07:11:17.684Z,20.92
2022-08-28T07:14:01.145Z,20.97
2022-08-28T07:16:44.697Z,21.04
2022-08-28T07:19:26.933Z,21.29
2022-08-28T07:22:08.829Z,21.60
2022-08-28T07:24:50.726Z,21.82
2022-08-28T07:27:33.440Z,21.99
2022-08-28T07:30:15.483Z,22.22
2022-08-28T07:32:57.334Z,22.53
2022-08-28T07:35:43.727Z,22.75
2022-08-28T07:38:25.631Z,22.92
2022-08-28T07:41:19.409Z,23.19
2022-08-28T07:44:19.938Z,23.41
2022-08-28T07:47:05.979Z,23.62
2022-08-28T07:49:48.439Z,23.80
2022-08-28T07:52:30.438Z,23.91
2022-08-28T07:55:12.231Z,23.92
2022-08-28T07:57:54.281Z,23.85
2022-08-28T08:00:37.764Z,23.84
2022-08-28T08:03:20.697Z,23.82
2022-08-28T08:06:05.470Z,23.83
2022-08-28T08:08:47.884Z,23.84
2022-08-28T08:11:32.556Z,23.77
2022-08-28T08:14:16.049Z,23.67
2022-08-28T08:17:02.657Z,23.59
2022-08-28T08:19:46.325Z,23.55
2022-08-28T08:22:28.392Z,23.49
2022-08-28T08:25:10.392Z,23.43
2022-08-28T08:27:53.235Z,23.39
2022-08-28T08:30:36.051Z,23.38
2022-08-28T08:33:18.947Z,23.37
2022-08-28T08:36:03.576Z,23.35
2022-08-28T08:38:47.177Z,23.31
2022-08-28T08:41:34.084Z,23.26
2022-08-28T08:44:37.770Z,23.20
2022-08-28T08:47:44.286Z,23.16
2022-08-28T08:50:36.400Z,23.13
2022-08-28T08:53:45.968Z,23.13
2022-08-28T08:56:34.792Z,23.13
2022-08-28T08:59:24.319Z,23.15
2022-08-28T09:02:19.654Z,23.13
2022-08-28T09:05:08.028Z,23.10
2022-08-28T09:08:03.232Z,23.12
2022-08-28T09:10:55.074Z,23.13
2022-08-28T09:14:07.457Z,23.15
2022-08-28T09:16:53.129Z,23.22
2022-08-28T09:19:36.274Z,23.30
2022-08-28T09:22:18.866Z,23.40
2022-08-28T09:25:00.975Z,23.48
2022-08-28T09:27:54.133Z,23.55
2022-08-28T09:30:37.620Z,23.61
2022-08-28T09:33:29.308Z,23.66
2022-08-28T09:36:27.571Z,23.71
2022-08-28T09:39:28.106Z,23.80
2022-08-28T09:42:41.539Z,23.88
2022-08-28T09:45:27.224Z,23.97
2022-08-28T09:48:41.624Z,24.00
2022-08-28T09:51:23.373Z,23.99
2022-08-28T09:54:28.516Z,23.96
2022-08-28T09:57:12.501Z,23.92
2022-08-28T09:59:54.559Z,23.89
2022-08-28T10:02:51.337Z,23.88
2022-08-28T10:05:39.732Z,23.91
2022-08-28T10:08:39.364Z,23.94
2022-08-28T10:11:44.219Z,23.93
2022-08-28T10:14:36.279Z,23.90
2022-08-28T10:17:41.119Z,23.90
2022-08-28T10:20:41.324Z,23.93
2022-08-28T10:23:47.992Z,23.97
2022-08-28T10:26:59.937Z,23.97
2022-08-28T10:30:12.997Z,23.98
2022-08-28T10:33:33.944Z,24.00
2022-08-28T10:36:33.343Z,24.02
2022-08-28T10:39:47.563Z,24.03
2022-08-28T10:42:44.106Z,24.06
2022-08-28T10:45:26.622Z,24.10
2022-08-28T10:48:27.149Z,24.12
2022-08-28T10:51:18.771Z,24.16
2022-08-28T10:54:23.818Z,24.17
2022-08-28T10:57:15.740Z,24.16
2022-08-28T11:00:00.605Z,24.15
2022-08-28T11:02:47.402Z,24.16
2022-08-28T11:05:38.733Z,24.16
2022-08-28T11:08:33.012Z,24.16
2022-08-28T11:11:42.878Z,24.16
2022-08-28T11:14:48.518Z,24.17
2022-08-28T11:17:41.138Z,24.18
2022-08-28T11:20:25.703Z,24.21
2022-08-28T11:23:15.762Z,24.22
2022-08-28T11:26:04.267Z,24.20
2022-08-28T11:28:47.801Z,24.18
2022-08-28T11:31:33.556Z,24.16
2022-08-28T11:34:57.876Z,24.16
2022-08-28T11:37:46.065Z,24.16
2022-08-28T11:40:32.088Z,24.17
2022-08-28T11:43:17.050Z,24.17
2022-08-28T11:45:59.756Z,24.15
2022-08-28T11:48:50.947Z,24.12
2022-08-28T11:51:47.498Z,24.11
2022-08-28T11:54:51.740Z,24.09
2022-08-28T11:58:14.896Z,24.07
2022-08-28T12:01:12.598Z,24.06
2022-08-28T12:03:59.729Z,24.03
2022-08-28T12:07:12.450Z,23.99
2022-08-28T12:09:54.948Z,23.97
2022-08-28T12:12:46.157Z,23.94
2022-08-28T12:15:28.169Z,23.94
2022-08-28T12:18:13.329Z,23.93
2022-08-28T12:21:25.085Z,23.88
2022-08-28T12:24:22.136Z,23.84
2022-08-28T12:27:08.785Z,23.80
2022-08-28T12:29:56.107Z,23.76
2022-08-28T12:32:45.580Z,23.71
2022-08-28T12:35:29.963Z,23.65
2022-08-28T12:38:20.807Z,23.62
2022-08-28T12:41:03.247Z,23.59
2022-08-28T12:43:48.842Z,23.57
2022-08-28T12:47:06.517Z,23.55
2022-08-28T12:50:37.002Z,23.51
2022-08-28T12:53:23.337Z,23.48
2022-08-28T12:56:05.809Z,23.48
2022-08-28T12:58:49.189Z,23.50
2022-08-28T13:01:52.108Z,23.54
2022-08-28T13:04:44.880Z,23.56
2022-08-28T13:07:40.573Z,23.58
2022-08-28T13:11:02.123Z,23.60
2022-08-28T13:13:50.504Z,23.59
2022-08-28T13:16:37.804Z,23.64
2022-08-28T13:19:29.304Z,23.70
2022-08-28T13:22:35.378Z,23.78
2022-08-28T13:25:23.522Z,23.87
2022-08-28T13:28:14.760Z,23.94
2022-08-28T13:31:00.181Z,23.98
2022-08-28T13:33:42.213Z,24.04
2022-08-28T13:36:26.770Z,24.08
2022-08-28T13:39:09.996Z,24.09
2022-08-28T13:41:58.959Z,24.09
2022-08-28T13:44:50.932Z,24.10
2022-08-28T13:47:32.762Z,24.08
2022-08-28T13:50:14.837Z,24.06
2022-08-28T13:52:56.733Z,24.05
2022-08-28T13:55:38.677Z,24.01
2022-08-28T13:58:20.676Z,23.99
2022-08-28T14:01:03.146Z,23.97
2022-08-28T14:03:45.389Z,23.94
2022-08-28T14:06:31.571Z,23.94
2022-08-28T14:09:17.718Z,23.93
2022-08-28T14:12:01.263Z,23.92
2022-08-28T14:14:43.313Z,23.94
2022-08-28T14:17:25.456Z,23.95
2022-08-28T14:20:07.965Z,23.99
2022-08-28T14:22:49.822Z,24.03
2022-08-28T14:25:33.805Z,24.05
2022-08-28T14:28:20.491Z,24.01
2022-08-28T14:31:12.306Z,23.96
2022-08-28T14:33:58.855Z,23.93
2022-08-28T14:36:43.530Z,23.90
2022-08-28T14:39:28.753Z,23.87
2022-08-28T14:42:13.442Z,23.83
2022-08-28T14:44:55.813Z,23.78
2022-08-28T14:47:39.548Z,23.76
2022-08-28T14:50:21.504Z,23.74
2022-08-28T14:53:03.442Z,23.69
2022-08-28T14:55:49.885Z,23.65
2022-08-28T14:58:34.303Z,23.61
2022-08-28T15:01:30.326Z,23.57
2022-08-28T15:04:23.901Z,23.54
2022-08-28T15:07:10.893Z,23.53
2022-08-28T15:09:52.997Z,23.57
2022-08-28T15:12:35.113Z,23.60
2022-08-28T15:15:21.104Z,23.60
2022-08-28T15:18:03.002Z,23.59
2022-08-28T15:20:46.629Z,23.56
2022-08-28T15:23:29.249Z,23.54
2022-08-28T15:26:15.612Z,23.52
2022-08-28T15:29:02.540Z,23.51
2022-08-28T15:31:48.206Z,23.46
2022-08-28T15:34:30.498Z,23.46
2022-08-28T15:37:13.388Z,23.47
2022-08-28T15:40:14.447Z,23.48
2022-08-28T15:42:56.413Z,23.49
2022-08-28T15:45:40.212Z,23.50
2022-08-28T15:48:22.151Z,23.49
2022-08-28T15:51:04.356Z,23.50
2022-08-28T15:53:46.557Z,23.53
2022-08-28T15:56:28.862Z,23.53
2022-08-28T15:59:11.578Z,23.52
2022-08-28T16:01:56.420Z,23.45
2022-08-28T16:04:38.441Z,23.36
2022-08-28T16:07:22.138Z,23.31
2022-08-28T16:10:09.810Z,23.28
2022-08-28T16:12:57.269Z,23.25
2022-08-28T16:15:40.052Z,23.20
2022-08-28T16:18:22.358Z,23.13
2022-08-28T16:21:05.271Z,23.03
2022-08-28T16:23:47.277Z,22.92
2022-08-28T16:26:30.353Z,22.85
2022-08-28T16:29:13.525Z,22.78
2022-08-28T16:31:56.826Z,22.72
2022-08-28T16:34:40.198Z,22.66
2022-08-28T16:37:22.993Z,22.59
2022-08-28T16:40:06.842Z,22.55
2022-08-28T16:42:51.675Z,22.50
2022-08-28T16:45:35.081Z,22.50
2022-08-28T16:48:17.445Z,22.49
2022-08-28T16:50:59.455Z,22.45
2022-08-28T16:53:42.921Z,22.43
2022-08-28T16:56:25.227Z,22.39
2022-08-28T16:59:10.412Z,22.36
2022-08-28T17:01:53.073Z,22.35
2022-08-28T17:04:35.886Z,22.33
2022-08-28T17:07:18.805Z,22.31
2022-08-28T17:10:01.984Z,22.27
2022-08-28T17:12:44.134Z,22.23
2022-08-28T17:15:26.132Z,22.20
2022-08-28T17:18:08.132Z,22.16
2022-08-28T17:21:08.561Z,22.13
2022-08-28T17:23:51.278Z,22.12
2022-08-28T17:26:33.112Z,22.09
2022-08-28T17:29:15.884Z,22.07
2022-08-28T17:31:58.294Z,22.03
2022-08-28T17:34:40.497Z,22.00
2022-08-28T17:37:28.023Z,21.95
2022-08-28T17:40:14.571Z,21.87
2022-08-28T17:42:57.857Z,21.78
2022-08-28T17:45:39.854Z,21.70
2022-08-28T17:48:21.853Z,21.66
2022-08-28T17:51:04.980Z,21.61
2022-08-28T17:53:46.976Z,21.55
2022-08-28T17:56:35.955Z,21.48
2022-08-28T17:59:19.764Z,21.43
2022-08-28T18:02:02.211Z,21.39
2022-08-28T18:04:44.514Z,21.33
2022-08-28T18:07:26.532Z,21.27
2022-08-28T18:10:11.884Z,21.22
2022-08-28T18:12:54.787Z,21.16
2022-08-28T18:15:38.452Z,21.11
2022-08-28T18:18:20.627Z,21.08
2022-08-28T18:21:13.689Z,21.04
2022-08-28T18:23:55.886Z,21.00
2022-08-28T18:26:38.089Z,20.98
2022-08-28T18:29:20.752Z,20.97
2022-08-28T18:32:04.958Z,20.94
2022-08-28T18:34:46.849Z,20.90
2022-08-28T18:37:28.847Z,20.85
2022-08-28T18:40:11.073Z,20.81
2022-08-28T18:42:54.993Z,20.79
2022-08-28T18:45:37.242Z,20.76
2022-08-28T18:48:47.459Z,20.72
2022-08-28T18:51:43.693Z,20.68
2022-08-28T18:54:25.789Z,20.66
2022-08-28T18:57:10.044Z,20.64
2022-08-28T18:59:53.575Z,20.62
2022-08-28T19:02:40.773Z,20.59
2022-08-28T19:05:23.920Z,20.56
2022-08-28T19:08:06.403Z,20.51
2022-08-28T19:10:48.326Z,20.46
2022-08-28T19:13:30.222Z,20.39
2022-08-28T19:16:17.659Z,20.33
2022-08-28T19:19:01.254Z,20.30
2022-08-28T19:21:43.707Z,20.26
2022-08-28T19:24:30.094Z,20.24
2022-08-28T19:27:11.945Z,20.23
2022-08-28T19:29:53.843Z,20.19
2022-08-28T19:32:36.599Z,20.16
2022-08-28T19:35:20.189Z,20.15
2022-08-28T19:38:07.682Z,20.13
2022-08-28T19:40:51.753Z,20.10
2022-08-28T19:43:44.548Z,20.07
2022-08-28T19:46:28.051Z,20.04
2022-08-28T19:49:13.307Z,20.03
2022-08-28T19:51:58.221Z,20.00
2022-08-28T19:54:42.611Z,19.98
2022-08-28T19:57:24.733Z,19.97
2022-08-28T20:00:08.020Z,19.97
2022-08-28T20:02:52.765Z,19.95
2022-08-28T20:05:35.291Z,19.94
2022-08-28T20:08:20.418Z,19.91
2022-08-28T20:11:02.360Z,19.87
2022-08-28T20:13:44.407Z,19.85
2022-08-28T20:16:28.205Z,19.84
2022-08-28T20:19:12.673Z,19.82
2022-08-28T20:21:54.858Z,19.81
2022-08-28T20:24:39.329Z,19.80
2022-08-28T20:27:22.847Z,19.79
2022-08-28T20:30:10.513Z,19.79
2022-08-28T20:32:53.910Z,19.78
2022-08-28T20:35:36.011Z,19.77
2022-08-28T20:38:18.008Z,19.75
2022-08-28T20:41:11.987Z,19.73
2022-08-28T20:44:04.531Z,19.71
2022-08-28T20:46:51.120Z,19.68
2022-08-28T20:49:33.751Z,19.65
2022-08-28T20:52:22.714Z,19.63
2022-08-28T20:55:06.042Z,19.61
2022-08-28T20:57:47.836Z,19.58
2022-08-28T21:00:30.054Z,19.58
2022-08-28T21:03:12.494Z,19.56
2022-08-28T21:05:54.445Z,19.54
2022-08-28T21:08:36.340Z,19.54
2022-08-28T21:11:18.338Z,19.53
2022-08-28T21:14:00.541Z,19.53
2022-08-28T21:16:42.932Z,19.53
2022-08-28T21:19:25.255Z,19.53
2022-08-28T21:22:07.767Z,19.54
2022-08-28T21:24:50.895Z,19.55
2022-08-28T21:27:33.508Z,19.56
2022-08-28T21:30:18.729Z,19.56
2022-08-28T21:33:00.891Z,19.56
2022-08-28T21:35:43.900Z,19.56
2022-08-28T21:38:26.109Z,19.57
2022-08-28T21:41:12.531Z,19.58
2022-08-28T21:43:56.449Z,19.58
2022-08-28T21:46:38.554Z,19.57
2022-08-28T21:49:22.732Z,19.57
2022-08-28T21:52:04.694Z,19.55
2022-08-28T21:54:48.285Z,19.54
2022-08-28T21:57:30.739Z,19.52
2022-08-28T22:00:17.507Z,19.51
2022-08-28T22:02:59.400Z,19.50
2022-08-28T22:05:46.752Z,19.47
2022-08-28T22:08:28.868Z,19.45
2022-08-28T22:11:11.584Z,19.43
2022-08-28T22:13:56.975Z,19.42
2022-08-28T22:16:38.984Z,19.40
2022-08-28T22:19:20.958Z,19.39
2022-08-28T22:22:21.900Z,19.37
2022-08-28T22:25:05.026Z,19.34
2022-08-28T22:27:47.024Z,19.32
2022-08-28T22:30:28.926Z,19.30
2022-08-28T22:33:11.327Z,19.27
2022-08-28T22:35:53.939Z,19.24
2022-08-28T22:38:36.450Z,19.21
2022-08-28T22:41:18.493Z,19.17
2022-08-28T22:44:00.593Z,19.14
2022-08-28T22:46:42.443Z,19.10
2022-08-28T22:49:24.901Z,19.07
2022-08-28T22:52:10.186Z,19.04
2022-08-28T22:54:52.344Z,19.01
2022-08-28T22:57:35.118Z,18.97
2022-08-28T23:00:20.944Z,18.92
2022-08-28T23:03:02.911Z,18.90
2022-08-28T23:05:45.032Z,18.89
2022-08-28T23:08:29.679Z,18.85
2022-08-28T23:11:15.587Z,18.81
2022-08-28T23:13:57.479Z,18.76
2022-08-28T23:16:39.631Z,18.71
2022-08-28T23:19:22.092Z,18.67
2022-08-28T23:22:04.394Z,18.63
2022-08-28T23:24:48.837Z,18.60
2022-08-28T23:27:37.943Z,18.56
2022-08-28T23:30:21.298Z,18.52
2022-08-28T23:33:04.158Z,18.48
2022-08-28T23:35:50.973Z,18.45
2022-08-28T23:38:36.708Z,18.41
2022-08-28T23:41:18.554Z,18.39
2022-08-28T23:44:05.303Z,18.37
2022-08-28T23:46:50.641Z,18.33
2022-08-28T23:49:32.740Z,18.31
2022-08-28T23:52:14.841Z,18.26
2022-08-28T23:54:56.840Z,18.22
2022-08-28T23:57:39.247Z,18.17
